Time;durP1;ratioP1;P1;durP2;ratioP2;P2;SDS_P1;SDS_P2;PMS_P1;PMS_P2;Temp;Humidity;BMP_temperature;BMP_pressure;BME280_temperature;BME280_humidity;BME280_pressure;Samples;Min_cycle;Max_cycle;Signal;HPM_P1;HPM_P2
2021/05/07 00:01:48;;;;;;;2.55;1.80;;;;;;;6.55;71.74;98909.22;10528384;28;20558;-69
2021/05/07 00:06:51;;;;;;;2.08;1.60;;;;;;;6.59;71.21;98912.56;10527864;28;20543;-69
2021/05/07 00:11:52;;;;;;;2.90;1.60;;;;;;;6.60;71.11;98916.00;10546277;28;20066;-69
2021/05/07 00:16:56;;;;;;;2.03;1.40;;;;;;;6.75;71.08;98910.28;10545954;28;20048;-70
2021/05/07 00:21:57;;;;;;;2.10;1.55;;;;;;;6.55;71.23;98905.72;10546462;28;20477;-68
2021/05/07 00:27:00;;;;;;;1.40;1.30;;;;;;;6.56;71.01;98907.47;10527342;28;20051;-69
2021/05/07 00:32:01;;;;;;;1.60;1.50;;;;;;;6.51;71.29;98899.78;10545928;28;20039;-69
2021/05/07 00:37:03;;;;;;;2.10;1.70;;;;;;;6.70;70.99;98901.75;10546546;28;20413;-70
2021/05/07 00:42:06;;;;;;;2.83;2.25;;;;;;;6.68;71.14;98898.34;10547353;28;20044;-69
2021/05/07 00:47:08;;;;;;;2.85;2.22;;;;;;;6.41;73.04;98890.53;10546824;28;20067;-70
2021/05/07 00:52:13;;;;;;;2.67;2.10;;;;;;;6.20;72.88;98888.66;10528387;28;20462;-70
2021/05/07 00:57:14;;;;;;;2.30;2.10;;;;;;;6.25;73.13;98900.63;10547015;28;20096;-70
2021/05/07 01:02:16;;;;;;;2.72;2.45;;;;;;;6.24;73.04;98895.44;10530764;28;20386;-69
2021/05/07 01:07:18;;;;;;;2.75;2.55;;;;;;;6.18;73.12;98888.66;10555650;28;20519;-69
2021/05/07 01:12:20;;;;;;;2.83;2.40;;;;;;;6.14;73.50;98879.22;10537854;28;20101;-69
2021/05/07 01:17:23;;;;;;;2.58;2.05;;;;;;;6.03;72.34;98881.34;10556034;28;20055;-69
2021/05/07 01:22:25;;;;;;;3.00;2.70;;;;;;;6.08;72.82;98884.66;10555203;28;20040;-70
2021/05/07 01:27:26;;;;;;;2.40;2.20;;;;;;;6.19;72.56;98884.31;10554535;28;20044;-70
2021/05/07 01:32:27;;;;;;;2.03;1.90;;;;;;;6.48;71.70;98885.97;10536408;28;20087;-72
2021/05/07 01:37:29;;;;;;;2.50;2.15;;;;;;;6.40;72.63;98891.44;10535944;28;20043;-69
2021/05/07 01:42:30;;;;;;;2.53;2.17;;;;;;;6.24;72.78;98883.28;10536686;28;20472;-70
2021/05/07 01:47:32;;;;;;;2.78;2.58;;;;;;;6.11;72.88;98871.53;10552855;28;20040;-70
2021/05/07 01:52:34;;;;;;;3.42;3.00;;;;;;;6.15;73.11;98874.88;10535698;28;20052;-69
2021/05/07 01:57:38;;;;;;;3.47;2.35;;;;;;;6.21;72.11;98861.63;10536989;28;20101;-70
2021/05/07 02:02:40;;;;;;;2.65;2.35;;;;;;;6.17;72.10;98876.53;10535727;28;20062;-70
2021/05/07 02:07:50;;;;;;;3.80;2.60;;;;;;;6.14;72.68;98879.22;10537554;28;20040;-70
2021/05/07 02:12:53;;;;;;;2.58;2.30;;;;;;;6.81;70.79;98890.03;10551914;28;20044;-69
2021/05/07 02:17:55;;;;;;;2.30;2.10;;;;;;;6.80;70.33;98887.47;10553344;28;20459;-70
2021/05/07 02:22:58;;;;;;;4.30;2.35;;;;;;;6.64;71.22;98891.50;10534282;28;20115;-69
2021/05/07 02:27:59;;;;;;;3.40;3.08;;;;;;;6.62;71.54;98893.34;10553119;28;20064;-70
2021/05/07 02:33:05;;;;;;;3.05;2.72;;;;;;;6.43;71.93;98899.19;10534112;28;20070;-70
2021/05/07 02:38:07;;;;;;;3.33;3.03;;;;;;;6.41;71.70;98900.97;10552018;28;20047;-70
2021/05/07 02:43:10;;;;;;;3.35;3.05;;;;;;;6.37;71.95;98901.97;10517604;28;20139;-70
2021/05/07 02:48:14;;;;;;;3.78;3.20;;;;;;;6.42;72.10;98905.31;10549632;28;20044;-69
2021/05/07 02:53:16;;;;;;;3.80;3.25;;;;;;;6.47;71.58;98903.41;10547073;28;20139;-69
2021/05/07 02:58:18;;;;;;;3.05;2.85;;;;;;;6.43;72.04;98900.94;10529609;28;20047;-69
2021/05/07 03:03:19;;;;;;;3.78;3.47;;;;;;;6.28;73.09;98921.38;10547756;28;20047;-69
2021/05/07 03:08:23;;;;;;;2.75;2.53;;;;;;;6.50;72.06;98931.13;10547134;28;20413;-69
2021/05/07 03:13:25;;;;;;;2.47;2.28;;;;;;;6.39;72.34;98938.47;10547465;28;20115;-69
2021/05/07 03:18:27;;;;;;;3.17;2.50;;;;;;;6.37;72.32;98948.09;10548366;28;20094;-69
2021/05/07 03:23:28;;;;;;;2.53;2.33;;;;;;;6.21;72.51;98955.59;10546524;28;20444;-68
2021/05/07 03:28:29;;;;;;;3.47;2.50;;;;;;;5.99;74.14;98977.09;10546080;28;20044;-69
2021/05/07 03:33:31;;;;;;;3.75;2.60;;;;;;;5.80;74.40;98986.34;10527882;28;20059;-68
2021/05/07 03:38:32;;;;;;;3.22;2.60;;;;;;;5.75;74.42;98990.81;10546095;28;20048;-68
2021/05/07 03:43:34;;;;;;;3.25;3.05;;;;;;;5.71;74.91;98997.03;10545800;28;20119;-68
2021/05/07 03:48:36;;;;;;;4.00;3.53;;;;;;;5.68;74.25;99003.19;10545361;28;20133;-68
2021/05/07 03:53:37;;;;;;;8.63;5.65;;;;;;;5.68;75.15;99008.41;10545702;28;20493;-68
2021/05/07 03:58:38;;;;;;;7.70;7.10;;;;;;;6.01;73.13;99016.19;10545946;28;20036;-68
2021/05/07 04:03:39;;;;;;;8.50;7.80;;;;;;;6.06;73.54;99017.78;10545260;28;20040;-69
2021/05/07 04:08:43;;;;;;;6.85;6.35;;;;;;;5.93;73.58;99008.59;10545835;28;20063;-69
2021/05/07 04:13:46;;;;;;;6.90;6.30;;;;;;;5.80;73.18;99002.00;10544905;28;20098;-68
2021/05/07 04:18:47;;;;;;;9.05;8.25;;;;;;;5.81;73.97;98998.47;10544462;28;20048;-68
2021/05/07 04:23:48;;;;;;;8.98;8.30;;;;;;;5.90;73.83;99002.59;10545117;28;20036;-69
2021/05/07 04:28:50;;;;;;;8.15;7.57;;;;;;;5.80;73.89;99023.72;10545119;28;20165;-69
2021/05/07 04:33:52;;;;;;;8.50;7.80;;;;;;;5.82;74.14;99044.53;10544253;28;20040;-68
2021/05/07 04:38:56;;;;;;;9.07;7.53;;;;;;;5.92;73.87;99064.25;10543361;28;20036;-69
2021/05/07 04:43:58;;;;;;;5.90;5.45;;;;;;;5.89;72.68;99060.84;10543637;28;20040;-68
2021/05/07 04:48:59;;;;;;;6.10;5.63;;;;;;;5.96;73.27;99068.47;10545156;28;20048;-68
2021/05/07 04:54:02;;;;;;;6.10;5.60;;;;;;;5.90;73.82;99073.00;10526419;28;20047;-70
2021/05/07 04:59:03;;;;;;;5.40;5.00;;;;;;;5.91;71.93;99072.94;10544564;28;20154;-69
2021/05/07 05:04:05;;;;;;;6.45;5.95;;;;;;;5.93;72.88;99081.63;10543384;28;20509;-69
2021/05/07 05:09:06;;;;;;;5.82;5.35;;;;;;;6.16;71.34;99080.13;10542322;28;20139;-68
2021/05/07 05:14:08;;;;;;;6.07;5.60;;;;;;;6.18;72.16;99087.00;10539433;28;20082;-68
2021/05/07 05:19:09;;;;;;;10.25;6.65;;;;;;;6.20;71.71;99089.56;10538901;28;20505;-69
2021/05/07 05:24:11;;;;;;;7.97;7.28;;;;;;;6.05;73.10;99088.22;10521763;28;20040;-70
2021/05/07 05:29:13;;;;;;;7.63;7.07;;;;;;;6.06;72.25;99098.66;10540743;28;20040;-69
2021/05/07 05:34:14;;;;;;;7.78;7.07;;;;;;;6.17;72.00;99102.69;10544487;28;20055;-69
2021/05/07 05:39:16;;;;;;;7.88;7.32;;;;;;;6.12;72.24;99105.44;10524257;28;20487;-69
2021/05/07 05:44:17;;;;;;;9.05;8.35;;;;;;;6.15;72.91;99104.47;10553013;22;20097;-72
2021/05/07 05:49:19;;;;;;;9.45;8.52;;;;;;;6.14;72.36;99103.63;10526168;28;20044;-71
2021/05/07 05:54:21;;;;;;;10.85;9.85;;;;;;;6.15;73.13;99107.94;10550152;28;20118;-71
2021/05/07 05:59:22;;;;;;;10.55;9.85;;;;;;;6.22;72.63;99101.66;10549131;28;20089;-71
2021/05/07 06:04:23;;;;;;;10.60;9.80;;;;;;;6.24;72.39;99106.81;10549218;28;20036;-71
2021/05/07 06:09:27;;;;;;;10.02;9.23;;;;;;;6.27;71.47;99117.19;10551334;28;20054;-71
2021/05/07 06:14:28;;;;;;;9.73;8.85;;;;;;;6.29;71.51;99116.25;10549227;28;20050;-71
2021/05/07 06:19:40;;;;;;;9.57;8.80;;;;;;;6.26;71.39;99125.91;10549463;28;20043;-71
2021/05/07 06:24:41;;;;;;;9.98;9.27;;;;;;;6.28;71.70;99134.53;10548540;28;20040;-71
2021/05/07 06:29:42;;;;;;;10.35;9.55;;;;;;;6.26;72.76;99139.81;10549217;28;20093;-70
2021/05/07 06:34:44;;;;;;;10.48;9.57;;;;;;;6.29;72.20;99146.72;10529755;28;20055;-71
2021/05/07 06:39:45;;;;;;;8.30;7.70;;;;;;;6.28;72.15;99151.06;10548056;28;20443;-71
2021/05/07 06:44:47;;;;;;;6.38;5.78;;;;;;;6.29;72.41;99144.09;10547601;28;20108;-71
2021/05/07 06:49:48;;;;;;;4.95;4.55;;;;;;;6.34;71.88;99149.19;10547940;28;20040;-71
2021/05/07 06:54:50;;;;;;;4.93;4.55;;;;;;;6.40;71.70;99149.84;10529886;28;20048;-72
2021/05/07 06:59:52;;;;;;;4.22;3.90;;;;;;;6.47;71.37;99151.41;10549631;28;20096;-71
2021/05/07 07:04:54;;;;;;;4.10;3.80;;;;;;;6.70;71.42;99155.94;10547754;28;20085;-71
2021/05/07 07:09:55;;;;;;;3.63;3.33;;;;;;;6.79;70.20;99158.28;10530386;28;20036;-71
2021/05/07 07:14:57;;;;;;;4.93;3.17;;;;;;;6.82;70.62;99168.63;10531736;28;20048;-71
2021/05/07 07:19:58;;;;;;;3.88;3.58;;;;;;;7.05;70.43;99172.28;10546823;28;20039;-71
2021/05/07 07:25:05;;;;;;;4.18;3.85;;;;;;;7.03;69.47;99174.09;10547406;28;20485;-71
2021/05/07 07:30:07;;;;;;;4.00;3.70;;;;;;;7.16;69.99;99167.56;10545049;28;20043;-72
2021/05/07 07:35:12;;;;;;;4.30;3.97;;;;;;;7.50;70.27;99159.50;10528918;28;20044;-73
2021/05/07 07:40:13;;;;;;;4.22;3.70;;;;;;;7.41;67.46;99165.03;10547270;28;20040;-73
2021/05/07 07:45:15;;;;;;;4.38;3.97;;;;;;;7.67;69.35;99164.16;10527738;28;20032;-74
2021/05/07 07:50:17;;;;;;;4.53;4.22;;;;;;;8.24;67.51;99172.66;10545433;28;20127;-73
2021/05/07 07:55:18;;;;;;;4.78;4.47;;;;;;;8.42;66.28;99181.66;10527350;28;20408;-73
2021/05/07 08:00:20;;;;;;;5.30;5.00;;;;;;;8.06;65.67;99192.50;10527633;28;20472;-73
2021/05/07 08:05:25;;;;;;;5.88;5.47;;;;;;;7.96;63.89;99193.69;10543584;28;20047;-74
2021/05/07 08:10:26;;;;;;;5.43;5.03;;;;;;;7.86;65.52;99194.94;10543974;28;20068;-74
2021/05/07 08:15:28;;;;;;;5.13;4.82;;;;;;;7.62;65.99;99204.47;10544237;28;20051;-74
2021/05/07 08:20:29;;;;;;;4.13;3.88;;;;;;;7.80;64.77;99214.31;10543996;28;20440;-74
2021/05/07 08:25:31;;;;;;;3.13;2.92;;;;;;;7.77;64.80;99217.88;10525155;28;20454;-73
2021/05/07 08:30:33;;;;;;;2.33;2.13;;;;;;;7.92;63.21;99236.59;10525396;28;20036;-73
2021/05/07 08:35:35;;;;;;;1.75;1.65;;;;;;;8.38;61.88;99240.28;10542565;28;20040;-72
2021/05/07 08:40:36;;;;;;;1.75;1.65;;;;;;;8.88;60.69;99234.94;10528615;28;20115;-72
2021/05/07 08:45:38;;;;;;;1.33;1.20;;;;;;;9.20;56.64;99255.53;10544349;28;20051;-69
2021/05/07 08:50:48;;;;;;;1.65;1.55;;;;;;;8.78;56.85;99266.75;10542227;28;20169;-75
2021/05/07 08:55:49;;;;;;;1.33;1.20;;;;;;;8.81;58.15;99260.53;10540166;28;20461;-73
2021/05/07 09:00:51;;;;;;;1.30;1.20;;;;;;;8.68;57.44;99281.09;10521944;28;20630;-75
2021/05/07 09:05:53;;;;;;;1.48;1.38;;;;;;;9.32;56.53;99278.69;10544092;28;20067;-74
2021/05/07 09:11:00;;;;;;;1.30;1.20;;;;;;;9.22;55.06;99286.97;10526396;28;20466;-73
2021/05/07 09:16:05;;;;;;;;;;;;;;;8.92;54.05;99288.97;10547341;28;20435;-75
2021/05/07 09:21:07;;;;;;;1.42;1.33;;;;;;;8.82;55.02;99293.69;10529065;28;20308;-71
2021/05/07 09:26:09;;;;;;;1.60;1.50;;;;;;;8.76;56.04;99313.09;10552319;28;20094;-71
2021/05/07 09:31:15;;;;;;;2.35;1.90;;;;;;;8.36;58.32;99316.22;10533753;28;20044;-71
2021/05/07 09:36:28;;;;;;;0.80;0.80;;;;;;;8.30;58.64;99333.00;10551078;28;20043;-71
2021/05/07 09:41:50;;;;;;;0.80;0.80;;;;;;;8.96;56.22;99354.31;10532499;28;20040;-71
2021/05/07 09:46:54;;;;;;;1.70;1.30;;;;;;;9.41;55.43;99353.53;10551644;28;20048;-72
2021/05/07 09:51:57;;;;;;;0.50;0.50;;;;;;;9.73;55.64;99373.28;10549249;28;20048;-71
2021/05/07 09:56:58;;;;;;;0.50;0.50;;;;;;;9.75;56.23;99389.00;10539201;28;20101;-71
2021/05/07 10:02:00;;;;;;;1.17;0.40;;;;;;;9.43;53.70;99379.69;10534975;28;20135;-71
2021/05/07 10:07:01;;;;;;;0.30;0.30;;;;;;;9.70;53.71;99399.66;10531603;28;20095;-71
2021/05/07 10:12:07;;;;;;;1.08;0.50;;;;;;;9.57;53.44;99419.41;10544798;28;20090;-71
2021/05/07 10:17:10;;;;;;;1.33;0.60;;;;;;;9.42;53.41;99433.09;10488649;28;20041;-71
2021/05/07 10:22:12;;;;;;;1.35;0.50;;;;;;;9.16;54.30;99444.50;10487880;28;20048;-71
2021/05/07 10:27:23;;;;;;;3.50;0.65;;;;;;;9.03;54.49;99455.44;10506411;28;20037;-71
2021/05/07 10:32:36;;;;;;;1.58;0.70;;;;;;;8.81;55.22;99467.56;10520597;28;20520;-71
2021/05/07 10:37:44;;;;;;;1.20;0.80;;;;;;;8.95;54.46;99470.56;10545841;28;20054;-72
2021/05/07 10:42:56;;;;;;;0.77;0.77;;;;;;;9.79;51.95;99469.31;10547611;28;20040;-73
2021/05/07 10:47:57;;;;;;;1.17;1.05;;;;;;;9.33;51.24;99489.34;10548916;28;20047;-75
2021/05/07 10:52:59;;;;;;;1.17;1.08;;;;;;;9.03;52.84;99491.25;10534767;28;20044;-73
2021/05/07 10:58:01;;;;;;;2.05;1.20;;;;;;;9.34;51.46;99504.16;10548133;28;20051;-73
2021/05/07 11:03:04;;;;;;;2.20;2.00;;;;;;;8.48;53.51;99524.53;10547584;28;20036;-72
2021/05/07 11:08:06;;;;;;;2.30;2.17;;;;;;;8.07;55.69;99522.25;10516047;28;20044;-76
2021/05/07 11:13:10;;;;;;;1.92;1.83;;;;;;;9.21;54.12;99522.13;10494953;28;20049;-74
2021/05/07 11:18:11;;;;;;;2.30;2.10;;;;;;;9.32;51.68;99535.72;10494237;28;20060;-74
2021/05/07 11:23:15;;;;;;;2.63;2.42;;;;;;;9.20;52.91;99520.38;10474771;28;20482;-75
2021/05/07 11:28:20;;;;;;;2.20;2.10;;;;;;;10.04;51.26;99527.84;10490327;28;20044;-73
2021/05/07 11:33:24;;;;;;;1.98;1.88;;;;;;;9.71;51.81;99548.34;10487909;28;20124;-74
2021/05/07 11:38:29;;;;;;;1.45;1.35;;;;;;;9.01;53.10;99556.00;10509588;28;20100;-73
2021/05/07 11:48:58;;;;;;;4.10;2.03;;;;;;;8.61;54.65;99573.00;10505494;28;20051;-71
2021/05/07 11:53:59;;;;;;;2.55;2.35;;;;;;;8.88;54.54;99568.66;10541834;28;20040;-73
2021/05/07 11:59:01;;;;;;;2.90;2.70;;;;;;;9.10;53.53;99574.06;10551396;28;20036;-73
2021/05/07 12:04:03;;;;;;;2.67;2.47;;;;;;;8.97;53.05;99581.47;10531648;28;20040;-74
2021/05/07 12:09:09;;;;;;;2.75;2.55;;;;;;;9.41;53.05;99589.63;10549193;28;20079;-72
2021/05/07 12:14:12;;;;;;;3.35;2.67;;;;;;;9.45;53.13;99587.75;10551219;28;20051;-73
2021/05/07 12:19:20;;;;;;;3.67;3.28;;;;;;;10.22;51.52;99591.97;10549719;28;20044;-73
2021/05/07 12:24:26;;;;;;;2.72;2.20;;;;;;;10.57;49.42;99579.28;10527208;28;20059;-73
2021/05/07 12:29:37;;;;;;;2.70;2.50;;;;;;;10.51;48.84;99583.03;10531709;28;20119;-73
2021/05/07 12:34:40;;;;;;;2.60;2.40;;;;;;;10.11;49.63;99602.88;10549861;28;20096;-74
2021/05/07 12:39:41;;;;;;;2.30;2.10;;;;;;;9.62;50.05;99609.03;10549348;28;20044;-73
2021/05/07 12:44:48;;;;;;;2.40;2.20;;;;;;;9.17;52.31;99609.69;10548199;28;20065;-72
2021/05/07 12:49:49;;;;;;;2.63;2.42;;;;;;;9.51;52.40;99621.66;10546619;28;20044;-72
2021/05/07 12:54:51;;;;;;;1.90;1.80;;;;;;;9.59;50.79;99622.25;10546386;28;20161;-71
2021/05/07 12:59:52;;;;;;;3.05;2.85;;;;;;;9.28;52.74;99648.66;10524731;28;20139;-71
2021/05/07 13:04:53;;;;;;;4.07;3.47;;;;;;;8.20;60.23;99694.69;10544180;28;20109;-73
2021/05/07 13:09:54;;;;;;;5.05;4.65;;;;;;;7.49;62.28;99674.72;10544966;28;20063;-72
2021/05/07 13:14:55;;;;;;;5.40;5.05;;;;;;;8.02;65.06;99670.72;10545457;28;20054;-74
2021/05/07 13:19:57;;;;;;;4.30;4.00;;;;;;;8.92;60.58;99654.16;10544924;28;20048;-74
2021/05/07 13:24:58;;;;;;;3.67;3.38;;;;;;;9.17;58.83;99643.75;10545627;28;20119;-73
2021/05/07 13:29:59;;;;;;;3.67;3.38;;;;;;;9.55;58.68;99655.59;10546661;28;20066;-73
2021/05/07 13:35:01;;;;;;;3.20;3.00;;;;;;;9.72;54.28;99633.19;10545500;28;20048;-73
2021/05/07 13:40:04;;;;;;;3.95;3.55;;;;;;;9.72;54.95;99628.78;10545654;28;20094;-73
2021/05/07 13:45:07;;;;;;;4.13;3.72;;;;;;;10.00;53.79;99635.69;10544686;28;20047;-72
2021/05/07 13:50:09;;;;;;;3.15;2.95;;;;;;;9.69;48.70;99638.53;10543563;28;20127;-74
2021/05/07 13:55:11;;;;;;;3.10;2.90;;;;;;;9.19;52.93;99680.41;10543798;28;20044;-72
2021/05/07 14:00:12;;;;;;;3.25;3.05;;;;;;;7.73;60.80;99700.25;10543039;28;20032;-73
2021/05/07 14:05:14;;;;;;;2.40;2.20;;;;;;;7.72;58.30;99690.69;10505646;28;20048;-72
2021/05/07 14:10:16;;;;;;;2.35;2.10;;;;;;;8.34;56.66;99696.00;10543603;28;20096;-73
2021/05/07 14:15:17;;;;;;;9.55;2.10;;;;;;;9.00;52.85;99672.28;10531113;28;20040;-72
2021/05/07 14:20:18;;;;;;;3.75;2.17;;;;;;;9.37;50.03;99674.56;10531660;28;20048;-73
2021/05/07 14:25:20;;;;;;;2.08;1.42;;;;;;;9.96;45.74;99681.34;10551047;28;20059;-73
2021/05/07 14:30:21;;;;;;;1.48;0.85;;;;;;;10.19;42.23;99683.19;10551150;28;20098;-73
2021/05/07 14:35:23;;;;;;;0.95;0.93;;;;;;;10.26;41.95;99677.66;10549714;28;20044;-73
2021/05/07 14:40:24;;;;;;;1.20;1.10;;;;;;;10.32;41.04;99689.75;10550679;28;20036;-73
2021/05/07 14:45:26;;;;;;;1.45;1.00;;;;;;;10.53;39.69;99682.81;10549602;28;20052;-72
2021/05/07 14:50:27;;;;;;;1.55;1.45;;;;;;;10.38;41.59;99689.50;10532732;28;20071;-72
2021/05/07 14:55:28;;;;;;;1.83;1.40;;;;;;;10.38;40.82;99707.03;10549382;28;20079;-73
2021/05/07 15:00:30;;;;;;;1.52;1.42;;;;;;;10.35;40.87;99705.38;10514031;28;20102;-72
2021/05/07 15:05:31;;;;;;;2.13;1.70;;;;;;;10.27;43.06;99703.03;10529592;28;20511;-72
2021/05/07 15:10:33;;;;;;;1.70;1.42;;;;;;;10.54;43.03;99708.22;10548356;28;20040;-72
2021/05/07 15:15:34;;;;;;;2.25;1.58;;;;;;;10.74;42.36;99705.69;10546344;28;20119;-73
2021/05/07 15:20:37;;;;;;;1.65;1.25;;;;;;;10.91;40.55;99707.66;10546196;28;20047;-72
2021/05/07 15:25:38;;;;;;;2.50;1.40;;;;;;;10.82;40.32;99718.53;10526715;28;20056;-73
2021/05/07 15:30:40;;;;;;;1.85;1.52;;;;;;;10.88;39.84;99717.44;10542565;28;20064;-71
2021/05/07 15:35:41;;;;;;;1.77;1.42;;;;;;;10.74;41.10;99718.81;10541515;28;20040;-71
2021/05/07 15:40:42;;;;;;;2.08;1.58;;;;;;;10.71;41.34;99739.97;10523148;28;20044;-71
2021/05/07 15:45:44;;;;;;;1.77;1.60;;;;;;;10.74;41.23;99758.25;10525306;28;20048;-71
2021/05/07 15:50:45;;;;;;;3.28;2.13;;;;;;;11.52;41.07;99759.69;10547408;28;20109;-70
2021/05/07 15:55:46;;;;;;;2.33;1.70;;;;;;;11.80;43.73;99783.97;10546098;28;20040;-72
2021/05/07 16:00:48;;;;;;;1.67;1.30;;;;;;;10.91;45.60;99806.75;10545592;28;20040;-70
2021/05/07 16:05:49;;;;;;;1.80;1.70;;;;;;;10.86;45.48;99817.44;10545325;28;20047;-70
2021/05/07 16:10:53;;;;;;;3.00;2.10;;;;;;;10.45;46.83;99837.31;10545641;28;20428;-70
2021/05/07 16:15:54;;;;;;;1.92;1.65;;;;;;;10.21;47.15;99837.16;10544789;28;20055;-70
2021/05/07 16:20:59;;;;;;;2.90;2.53;;;;;;;9.83;47.66;99857.66;10545780;28;20040;-73
2021/05/07 16:26:21;;;;;;;2.20;1.90;;;;;;;9.52;47.37;99868.25;10544431;28;20456;-71
2021/05/07 16:31:23;;;;;;;3.53;1.35;;;;;;;9.72;46.40;99867.63;10543865;28;20034;-71
2021/05/07 16:36:27;;;;;;;2.22;1.30;;;;;;;9.85;46.03;99871.59;10543662;28;20089;-72
2021/05/07 16:41:29;;;;;;;1.58;1.40;;;;;;;9.90;46.54;99868.81;10525926;28;20036;-71
2021/05/07 16:46:30;;;;;;;2.15;1.60;;;;;;;9.85;46.98;99889.13;10524473;28;20521;-72
2021/05/07 16:51:32;;;;;;;1.83;1.27;;;;;;;9.76;42.05;99890.25;10543342;28;20040;-71
2021/05/07 16:56:35;;;;;;;2.33;1.08;;;;;;;9.48;43.87;99907.75;10543224;28;20048;-72
2021/05/07 17:01:37;;;;;;;1.52;1.20;;;;;;;9.47;45.86;99911.25;10543146;28;20047;-71
2021/05/07 17:06:38;;;;;;;1.45;1.30;;;;;;;9.13;46.12;99912.22;10542536;28;20048;-71
2021/05/07 17:11:40;;;;;;;1.80;1.30;;;;;;;9.16;46.55;99932.25;10543118;28;20614;-71
2021/05/07 17:16:41;;;;;;;2.97;1.83;;;;;;;9.01;46.71;99931.78;10543771;28;20393;-71
2021/05/07 17:21:42;;;;;;;3.10;2.80;;;;;;;8.80;48.49;99940.19;10542342;28;20040;-72
2021/05/07 17:26:43;;;;;;;2.55;2.35;;;;;;;8.75;48.25;99939.47;10543390;28;20040;-71
2021/05/07 17:31:45;;;;;;;2.90;1.70;;;;;;;8.64;48.67;99968.56;10543212;28;20040;-71
2021/05/07 17:36:46;;;;;;;5.00;1.38;;;;;;;8.19;52.74;99988.81;10542024;28;20095;-71
2021/05/07 17:41:47;;;;;;;2.45;1.55;;;;;;;7.17;59.81;100010.97;10543490;28;20082;-72
2021/05/07 17:46:49;;;;;;;3.70;1.83;;;;;;;6.70;61.83;99988.28;10531051;28;20115;-70
2021/05/07 17:51:50;;;;;;;1.42;1.33;;;;;;;6.63;61.74;99984.03;10550146;28;20036;-71
2021/05/07 17:56:51;;;;;;;1.95;1.75;;;;;;;6.64;62.37;99977.91;10550900;28;20044;-71
2021/05/07 18:01:53;;;;;;;1.67;1.58;;;;;;;6.67;61.16;99985.72;10549922;28;20055;-71
2021/05/07 18:06:55;;;;;;;3.58;1.60;;;;;;;6.76;60.69;100002.09;10550001;28;20044;-71
2021/05/07 18:11:58;;;;;;;1.92;1.60;;;;;;;6.76;60.55;100020.38;10550205;28;20071;-71
2021/05/07 18:17:00;;;;;;;2.03;1.83;;;;;;;6.82;61.09;100016.81;10549853;28;20078;-71
2021/05/07 18:22:02;;;;;;;2.15;1.95;;;;;;;6.81;60.45;100026.38;10531600;28;20048;-70
2021/05/07 18:27:04;;;;;;;2.05;1.75;;;;;;;6.90;60.17;100038.44;10550600;28;20051;-71
2021/05/07 18:32:10;;;;;;;2.37;2.10;;;;;;;7.02;59.41;100053.06;10549795;28;20067;-71
2021/05/07 18:37:12;;;;;;;2.60;1.85;;;;;;;7.04;58.75;100065.22;10549377;28;20105;-72
2021/05/07 18:42:13;;;;;;;2.40;2.17;;;;;;;6.90;59.87;100080.25;10549145;28;20486;-71
2021/05/07 18:47:15;;;;;;;2.83;2.17;;;;;;;6.64;61.57;100098.97;10529949;28;20079;-70
2021/05/07 18:52:16;;;;;;;3.33;2.10;;;;;;;6.44;61.72;100109.66;10548541;28;20406;-71
2021/05/07 18:57:20;;;;;;;1.95;1.83;;;;;;;6.49;61.99;100114.81;10547035;28;20054;-70
2021/05/07 19:02:23;;;;;;;3.33;3.03;;;;;;;6.88;60.48;100128.19;10548164;28;20064;-70
2021/05/07 19:07:25;;;;;;;3.20;2.90;;;;;;;6.85;60.62;100133.47;10530274;28;20048;-71
2021/05/07 19:12:27;;;;;;;3.33;3.03;;;;;;;6.83;60.96;100142.19;10530909;28;20091;-72
2021/05/07 19:17:28;;;;;;;3.88;3.30;;;;;;;6.86;60.92;100148.25;10551948;28;20040;-72
2021/05/07 19:22:29;;;;;;;3.53;3.22;;;;;;;6.74;61.25;100157.16;10551405;28;20055;-71
2021/05/07 19:27:32;;;;;;;8.23;7.72;;;;;;;6.88;60.46;100164.78;10552018;28;20044;-71
2021/05/07 19:32:33;;;;;;;3.08;2.88;;;;;;;6.68;61.00;100162.44;10551289;28;20059;-70
2021/05/07 19:37:34;;;;;;;3.17;2.60;;;;;;;6.67;60.67;100164.19;10531516;28;20089;-71
2021/05/07 19:42:36;;;;;;;3.05;2.80;;;;;;;6.66;61.01;100174.69;10550731;28;20040;-71
2021/05/07 19:47:37;;;;;;;3.10;2.80;;;;;;;6.58;60.88;100178.25;10540660;28;20060;-71
2021/05/07 19:52:38;;;;;;;2.80;2.60;;;;;;;6.59;60.60;100179.09;10534386;28;20157;-71
2021/05/07 19:57:40;;;;;;;3.35;2.55;;;;;;;6.63;60.24;100186.00;10531587;28;20074;-71
2021/05/07 20:02:41;;;;;;;3.70;1.90;;;;;;;6.58;60.02;100190.44;10547379;28;20040;-72
2021/05/07 20:07:47;;;;;;;3.42;2.30;;;;;;;6.63;59.52;100190.38;10506581;28;20044;-70
2021/05/07 20:12:50;;;;;;;3.22;2.63;;;;;;;6.62;59.73;100197.34;10507438;28;20090;-72
2021/05/07 20:17:52;;;;;;;2.30;2.10;;;;;;;6.63;59.31;100195.59;10489513;28;20052;-72
2021/05/07 20:22:53;;;;;;;3.25;2.42;;;;;;;6.79;58.94;100195.38;10516956;28;20071;-71
2021/05/07 20:27:55;;;;;;;2.05;1.88;;;;;;;6.61;59.63;100202.59;10546633;28;20054;-71
2021/05/07 20:32:56;;;;;;;4.45;2.17;;;;;;;6.63;57.69;100206.03;10546787;28;20040;-72
2021/05/07 20:38:00;;;;;;;2.58;2.38;;;;;;;6.67;57.39;100210.34;10528166;28;20048;-71
2021/05/07 20:43:02;;;;;;;2.25;2.05;;;;;;;6.54;57.44;100207.03;10546233;28;20033;-70
2021/05/07 20:48:03;;;;;;;2.47;1.80;;;;;;;6.64;57.02;100220.81;10527967;28;20036;-71
2021/05/07 20:53:05;;;;;;;1.88;1.77;;;;;;;6.47;57.43;100227.16;10543401;28;20036;-70
2021/05/07 20:58:06;;;;;;;3.75;1.83;;;;;;;6.44;57.10;100223.69;10524359;28;20104;-71
2021/05/07 21:03:08;;;;;;;3.50;2.00;;;;;;;6.30;57.07;100218.63;10543180;28;20044;-71
2021/05/07 21:08:10;;;;;;;2.55;1.85;;;;;;;6.22;57.51;100225.69;10525299;28;20516;-70
2021/05/07 21:13:11;;;;;;;8.27;1.80;;;;;;;6.10;58.08;100242.34;10541539;28;20051;-70
2021/05/07 21:18:12;;;;;;;1.65;1.55;;;;;;;6.11;58.19;100241.47;10521890;28;20040;-71
2021/05/07 21:23:13;;;;;;;1.73;1.55;;;;;;;6.07;58.19;100235.41;10551699;28;20058;-71
2021/05/07 21:28:18;;;;;;;1.40;1.30;;;;;;;6.16;57.69;100241.44;10551122;28;20056;-71
2021/05/07 21:33:19;;;;;;;1.48;1.20;;;;;;;6.16;58.50;100238.81;10532957;28;20071;-71
2021/05/07 21:38:20;;;;;;;3.15;1.83;;;;;;;6.21;58.19;100240.50;10531920;28;20420;-71
2021/05/07 21:43:22;;;;;;;1.67;1.35;;;;;;;6.25;58.61;100243.94;10550931;28;20035;-71
2021/05/07 21:48:23;;;;;;;1.52;1.20;;;;;;;6.15;59.25;100240.53;10532433;28;20079;-71
2021/05/07 21:53:25;;;;;;;2.65;1.50;;;;;;;6.16;59.12;100247.50;10550608;28;20560;-71
2021/05/07 21:58:29;;;;;;;1.92;1.70;;;;;;;6.22;58.75;100252.66;10550239;28;20096;-70
2021/05/07 22:03:31;;;;;;;2.05;1.83;;;;;;;6.35;58.68;100262.97;10531228;28;20044;-70
2021/05/07 22:08:32;;;;;;;3.22;1.60;;;;;;;6.33;58.87;100265.63;10548847;28;20044;-70
2021/05/07 22:13:34;;;;;;;2.33;1.60;;;;;;;6.31;58.96;100267.34;10549411;28;20044;-70
2021/05/07 22:18:35;;;;;;;2.03;1.85;;;;;;;6.38;58.75;100270.78;10530702;28;20048;-70
2021/05/07 22:23:36;;;;;;;2.67;1.83;;;;;;;6.40;58.45;100272.47;10548041;28;20062;-70
2021/05/07 22:28:38;;;;;;;1.80;1.63;;;;;;;6.30;58.56;100269.09;10548765;28;20076;-70
2021/05/07 22:33:39;;;;;;;1.83;1.73;;;;;;;6.38;58.38;100271.66;10547221;28;20047;-70
2021/05/07 22:38:41;;;;;;;1.90;1.80;;;;;;;6.37;58.18;100282.94;10547990;28;20044;-70
2021/05/07 22:43:42;;;;;;;1.80;1.70;;;;;;;6.34;58.37;100283.00;10547655;28;20453;-71
2021/05/07 22:48:44;;;;;;;1.95;1.85;;;;;;;6.30;58.64;100281.31;10547080;28;20135;-71
2021/05/07 22:53:45;;;;;;;2.10;1.90;;;;;;;6.31;58.65;100285.63;10546658;28;20036;-69
2021/05/07 22:58:46;;;;;;;1.75;1.50;;;;;;;6.13;59.38;100283.22;10547056;28;20044;-71
2021/05/07 23:03:48;;;;;;;2.13;1.70;;;;;;;6.03;59.41;100287.66;10529297;28;20439;-70
2021/05/07 23:08:49;;;;;;;2.03;1.50;;;;;;;6.05;59.37;100289.34;10547601;28;20055;-70
2021/05/07 23:13:51;;;;;;;2.20;1.70;;;;;;;5.94;59.70;100292.97;10528174;28;20078;-70
2021/05/07 23:18:52;;;;;;;1.90;1.70;;;;;;;5.91;60.04;100298.16;10546068;28;20098;-69
2021/05/07 23:23:53;;;;;;;1.60;1.50;;;;;;;5.93;59.81;100289.50;10545534;28;20036;-69
2021/05/07 23:28:55;;;;;;;1.75;1.65;;;;;;;5.88;59.88;100295.56;10527218;28;20497;-69
2021/05/07 23:33:56;;;;;;;1.88;1.77;;;;;;;5.86;59.75;100294.72;10545516;28;20051;-69
2021/05/07 23:38:57;;;;;;;2.83;1.67;;;;;;;5.85;59.68;100303.44;10546356;28;20109;-69
2021/05/07 23:43:58;;;;;;;2.83;1.85;;;;;;;5.90;59.36;100299.91;10545603;28;20043;-69